KUILKHQM

Guest
Details From KUIL - QUILLAYUTE
To KHQM - BOWERMAN
Flight Number -
Tags generated
Created
Modified
Stats Distance 63 nm / 118 km
Max Altitude 6,900 ft / 2,103 m
Waypoints 3
Social Downloads 0
Likes 0
Share VATSIM

Download

Looking for another format? Having issues loading an existing format? Contact us
Advertisement - Login to hide

Notes

Basic altitude profile: - Ascent Rate: 2500ft/min - Ascent Speed: 250kts - Cruise Altitude: 3000ft - Cruise Speed: 420kts - Descent Rate: 1500ft/min - Descent Speed: 250kts Options: - Use NATs: yes - Use PACOTS: yes - Use low airways: yes - Use high airways: yes

Route

KUIL WAPTO KHQM

ID Type Via Altitude Latitude Longitude Leg Dist Tot Dist Heading (true) Name
O KUIL APT - 0 ft / 0 m 47.93913˚ -124.56118˚ - 0 nm - QUILLAYUTE
WAPTO FIX - 6,900 ft / 2,103 m 47.47209˚ -124.23066˚ 31 nm 31 nm 154° / 155° -
O KHQM APT - 0 ft / 0 m 46.97120˚ -123.93656˚ 32 nm 63 nm 158° / 158° BOWERMAN

Altitude Profile

Advertisement - Login to hide

KUIL

Details ICAO KUIL
Name QUILLAYUTE
Region United States
Timezone America/Los_Angeles (UTC-8.0)
Stats Elevation 194 ft / 59 m (AMSL)
Location 47.939128° -124.561178°
Runways 2
Magnetic Variation 16.168° E

METAR

KUIL 140018Z AUTO 00000KT 1/4SM FG VV002 05/05 A3034

Decode

TAF

Not found

Departure Runways

ID Width Length Bearing (true) Bearing (mag) Surface Threshold Offset Overrun Length
04 98 ft / 30 m 4,203 ft / 1,281 m 58.29° 42.12° Concrete 0 ft / 0 m 0 ft / 0 m
14 174 ft / 53 m 4,676 ft / 1,425 m 143.00° 126.83° Concrete 0 ft / 0 m 0 ft / 0 m
22 98 ft / 30 m 4,203 ft / 1,281 m 238.31° 222.14° Concrete 0 ft / 0 m 801 ft / 244 m
32 174 ft / 53 m 4,676 ft / 1,425 m 323.00° 306.83° Concrete 0 ft / 0 m 0 ft / 0 m

KHQM

Details ICAO KHQM
Name BOWERMAN
Region United States
Timezone America/Los_Angeles (UTC-8.0)
Stats Elevation 18 ft / 5 m (AMSL)
Location 46.971196° -123.936564°
Runways 1
Magnetic Variation 15.841° E

METAR

KHQM 132353Z AUTO 05009KT 9SM CLR 09/04 A3035 RMK AO2 SLP281 T00940044 10106 20050 53003

Decode

TAF

TAF KHQM 132320Z 1400/1424 03008KT P6SM SCT250 FM141100 08008KT 2SM BR SCT001 TEMPO 1413/1417 1/2SM FG OVC001 FM142000 07008KT P6SM SCT250

Decode

Destination Runways

ID Width Length Bearing (true) Bearing (mag) Surface Threshold Offset Overrun Length
06 151 ft / 46 m 4,987 ft / 1,520 m 79.79° 63.95° Asphalt 0 ft / 0 m 0 ft / 0 m
24 151 ft / 46 m 4,987 ft / 1,520 m 259.81° 243.97° Asphalt 0 ft / 0 m 0 ft / 0 m

Approach Navaids

Runway Type Ident Frequency Range Bearing (true) Bearing (mag) Slope Elevation
24 Localiser IHQM 108.70 MHz 18 nm / 33 km 259.79° 243.95° - 18 ft / 5 m (AMSL)
24 Glidescope IHQM 108.70 MHz 10 nm / 19 km 259.80° 243.96° 3.00° 18 ft / 5 m (AMSL)
24 DME IHQM 108.70 MHz 18 nm / 33 km - - - 18 ft / 5 m (AMSL)

Popular Alternatives